Weather at Albuquerque International Sunport

Public forecast

Using degrees Fahrenheit for public forecast. Weather courtesy of forecast.io.

Current aviation weather report (METAR) for Albuquerque International Sunport

Retrieved 2020/10/26 18:22 UTC (24 minutes ago):

KABQ 261822Z 09030G39KT 6SM OVC036 M04/M11 A2998

Aviation forecast (TAF) for Albuquerque International Sunport

Retrieved 2020/10/26 18:24 UTC (22 minutes ago):

TAF KABQ 261723Z 2618/2718 09032G47KT P6SM VCSH OVC035 TEMPO 2618/2620 3SM -SN OVC020 FM262000 09020G30KT 3SM -SN OVC015 FM270000 07019G27KT 1 1/2SM -SN OVC012 FM270400 05014G24KT 2SM -SN OVC007 FM271200 05011KT 4SM -SN OVC010